createdAt,value
2023-04-03T10:24:56.674Z,9.64
2023-04-03T10:27:40.758Z,9.74
2023-04-03T10:30:38.455Z,9.70
2023-04-03T10:33:26.726Z,9.66
2023-04-03T10:36:02.051Z,9.64
2023-04-03T10:38:56.756Z,9.65
2023-04-03T10:41:31.038Z,9.66
2023-04-03T10:44:24.259Z,9.67
2023-04-03T10:47:01.652Z,9.67
2023-04-03T10:50:00.017Z,9.68
2023-04-03T10:52:49.133Z,9.67
2023-04-03T10:55:35.358Z,9.66
2023-04-03T10:58:07.220Z,9.65
2023-04-03T11:00:39.157Z,9.64
2023-04-03T11:03:26.496Z,9.68
2023-04-03T11:05:56.989Z,9.72
2023-04-03T11:08:36.599Z,9.73
2023-04-03T11:11:14.244Z,9.74
2023-04-03T11:14:00.635Z,9.73
2023-04-03T11:16:37.892Z,9.71
2023-04-03T11:19:40.419Z,9.69
2023-04-03T11:22:17.334Z,9.66
2023-04-03T11:24:57.998Z,9.68
2023-04-03T11:27:36.447Z,9.69
2023-04-03T11:30:11.307Z,9.69
2023-04-03T11:32:54.900Z,9.70
2023-04-03T11:35:26.623Z,9.71
2023-04-03T11:37:55.888Z,9.72
2023-04-03T11:40:29.429Z,9.76
2023-04-03T11:43:01.255Z,9.80
2023-04-03T11:45:34.591Z,9.88
2023-04-03T11:48:21.210Z,9.98
2023-04-03T11:50:53.607Z,10.08
2023-04-03T11:53:31.037Z,10.14
2023-04-03T11:56:04.946Z,10.23
2023-04-03T11:58:36.188Z,10.27
2023-04-03T12:01:10.633Z,10.28
2023-04-03T12:03:46.646Z,10.28
2023-04-03T12:06:17.973Z,10.30
2023-04-03T12:08:49.157Z,10.37
2023-04-03T12:11:23.260Z,10.45
2023-04-03T12:13:57.680Z,10.54
2023-04-03T12:16:29.611Z,10.63
2023-04-03T12:19:04.708Z,10.75
2023-04-03T12:21:39.696Z,10.92
2023-04-03T12:24:11.910Z,11.06
2023-04-03T12:26:49.504Z,11.15
2023-04-03T12:29:34.185Z,11.25
2023-04-03T12:32:34.071Z,11.28
2023-04-03T12:35:38.429Z,11.26
2023-04-03T12:38:55.650Z,11.18
2023-04-03T12:41:39.341Z,11.12
2023-04-03T12:44:41.870Z,11.07
2023-04-03T12:47:30.188Z,11.04
2023-04-03T12:50:00.352Z,11.03
2023-04-03T12:52:45.269Z,11.04
2023-04-03T12:55:19.100Z,11.02
2023-04-03T12:57:47.929Z,11.01
2023-04-03T13:00:34.594Z,11.01
2023-04-03T13:03:28.119Z,11.04
2023-04-03T13:06:03.151Z,11.08
2023-04-03T13:08:31.963Z,11.08
2023-04-03T13:11:11.175Z,11.02
2023-04-03T13:13:40.745Z,10.96
2023-04-03T13:16:12.018Z,10.89
2023-04-03T13:18:43.256Z,10.79
2023-04-03T13:21:19.662Z,10.71
2023-04-03T13:23:55.232Z,10.65
2023-04-03T13:26:30.490Z,10.58
2023-04-03T13:29:09.500Z,10.51
2023-04-03T13:31:42.164Z,10.48
2023-04-03T13:34:13.038Z,10.45
2023-04-03T13:36:46.359Z,10.43
2023-04-03T13:39:15.035Z,10.41
2023-04-03T13:41:56.343Z,10.41
2023-04-03T13:44:24.584Z,10.40
2023-04-03T13:46:55.612Z,10.40
2023-04-03T13:49:29.936Z,10.41
2023-04-03T13:52:07.472Z,10.39
2023-04-03T13:54:39.282Z,10.38
2023-04-03T13:57:17.272Z,10.39
2023-04-03T13:59:46.153Z,10.40
2023-04-03T14:02:23.592Z,10.41
2023-04-03T14:04:59.520Z,10.45
2023-04-03T14:07:30.294Z,10.47
2023-04-03T14:10:01.481Z,10.47
2023-04-03T14:12:40.336Z,10.48
2023-04-03T14:15:20.317Z,10.49
2023-04-03T14:17:52.753Z,10.50
2023-04-03T14:20:24.298Z,10.51
2023-04-03T14:22:54.887Z,10.51
2023-04-03T14:25:25.191Z,10.51
2023-04-03T14:27:56.231Z,10.51
2023-04-03T14:30:34.391Z,10.50
2023-04-03T14:33:02.973Z,10.50
2023-04-03T14:35:33.626Z,10.49
2023-04-03T14:38:02.133Z,10.49
2023-04-03T14:40:30.449Z,10.48
2023-04-03T14:42:59.476Z,10.49
2023-04-03T14:45:27.801Z,10.49
2023-04-03T14:47:57.846Z,10.47
2023-04-03T14:50:28.547Z,10.45
2023-04-03T14:53:00.053Z,10.43
2023-04-03T14:55:29.070Z,10.41
2023-04-03T14:57:59.018Z,10.38
2023-04-03T15:00:27.492Z,10.35
2023-04-03T15:03:22.970Z,10.29
2023-04-03T15:05:52.416Z,10.25
2023-04-03T15:08:24.066Z,10.22
2023-04-03T15:10:53.899Z,10.20
2023-04-03T15:13:24.514Z,10.19
2023-04-03T15:15:53.380Z,10.16
2023-04-03T15:18:27.919Z,10.15
2023-04-03T15:20:57.302Z,10.14
2023-04-03T15:23:27.122Z,10.13
2023-04-03T15:25:55.950Z,10.14
2023-04-03T15:28:35.234Z,10.14
2023-04-03T15:31:05.871Z,10.13
2023-04-03T15:33:36.103Z,10.15
2023-04-03T15:36:07.059Z,10.15
2023-04-03T15:38:36.394Z,10.15
2023-04-03T15:41:06.193Z,10.13
2023-04-03T15:43:36.156Z,10.11
2023-04-03T15:46:05.225Z,10.09
2023-04-03T15:48:34.375Z,10.08
2023-04-03T15:51:02.686Z,10.06
2023-04-03T15:53:30.998Z,10.04
2023-04-03T15:56:00.114Z,10.02
2023-04-03T15:58:30.633Z,10.00
2023-04-03T16:00:59.111Z,9.97
2023-04-03T16:03:29.435Z,9.95
2023-04-03T16:05:57.865Z,9.92
2023-04-03T16:08:27.166Z,9.93
2023-04-03T16:10:55.640Z,9.92
2023-04-03T16:13:24.217Z,9.92
2023-04-03T16:15:52.617Z,9.90
2023-04-03T16:18:21.340Z,9.87
2023-04-03T16:20:49.945Z,9.83
2023-04-03T16:23:19.903Z,9.78
2023-04-03T16:25:48.461Z,9.72
2023-04-03T16:28:18.616Z,9.67
2023-04-03T16:30:49.306Z,9.63
2023-04-03T16:33:22.622Z,9.59
2023-04-03T16:35:53.147Z,9.57
2023-04-03T16:38:23.249Z,9.54
2023-04-03T16:40:53.609Z,9.51
2023-04-03T16:43:21.875Z,9.49
2023-04-03T16:45:50.163Z,9.45
2023-04-03T16:48:18.560Z,9.44
2023-04-03T16:50:50.153Z,9.43
2023-04-03T16:53:18.501Z,9.42
2023-04-03T16:55:48.060Z,9.40
2023-04-03T16:58:17.926Z,9.41
2023-04-03T17:00:49.339Z,9.42
2023-04-03T17:03:18.843Z,9.42
2023-04-03T17:05:50.889Z,9.42
2023-04-03T17:08:19.461Z,9.41
2023-04-03T17:10:51.365Z,9.38
2023-04-03T17:13:20.724Z,9.37
2023-04-03T17:15:49.427Z,9.35
2023-04-03T17:18:18.137Z,9.34
2023-04-03T17:20:46.617Z,9.34
2023-04-03T17:23:15.025Z,9.32
2023-04-03T17:25:44.433Z,9.31
2023-04-03T17:28:12.765Z,9.29
2023-04-03T17:30:42.685Z,9.28
2023-04-03T17:33:12.089Z,9.27
2023-04-03T17:35:40.811Z,9.24
2023-04-03T17:38:10.422Z,9.24
2023-04-03T17:40:39.032Z,9.23
2023-04-03T17:43:07.531Z,9.23
2023-04-03T17:45:36.477Z,9.22
2023-04-03T17:48:06.603Z,9.21
2023-04-03T17:50:37.308Z,9.19
2023-04-03T17:53:05.640Z,9.18
2023-04-03T17:55:34.330Z,9.17
2023-04-03T17:58:02.774Z,9.13
2023-04-03T18:00:32.445Z,9.11
2023-04-03T18:03:13.543Z,9.10
2023-04-03T18:05:41.953Z,9.09
2023-04-03T18:08:10.409Z,9.07
2023-04-03T18:10:39.273Z,9.06
2023-04-03T18:13:08.968Z,9.05
2023-04-03T18:15:44.052Z,9.04
2023-04-03T18:18:12.686Z,9.03
2023-04-03T18:20:41.978Z,9.02
2023-04-03T18:23:11.114Z,9.00
2023-04-03T18:25:39.740Z,8.99
2023-04-03T18:28:08.502Z,8.99
2023-04-03T18:30:36.928Z,8.98
2023-04-03T18:33:07.972Z,8.97
2023-04-03T18:35:36.820Z,8.95
2023-04-03T18:38:05.369Z,8.94
2023-04-03T18:40:35.188Z,8.92
2023-04-03T18:43:04.174Z,8.88
2023-04-03T18:45:33.921Z,8.85
2023-04-03T18:48:02.791Z,8.84
2023-04-03T18:50:32.138Z,8.81
2023-04-03T18:53:00.545Z,8.81
2023-04-03T18:55:31.036Z,8.82
2023-04-03T18:57:59.422Z,8.83
2023-04-03T19:00:28.392Z,8.83
2023-04-03T19:03:16.748Z,8.83
2023-04-03T19:05:46.490Z,8.83
2023-04-03T19:08:16.060Z,8.82
2023-04-03T19:10:44.585Z,8.81
2023-04-03T19:13:13.265Z,8.81
2023-04-03T19:15:42.385Z,8.82
2023-04-03T19:18:11.024Z,8.83
2023-04-03T19:20:46.533Z,8.83
2023-04-03T19:23:16.500Z,8.83
2023-04-03T19:25:46.014Z,8.83
2023-04-03T19:28:14.893Z,8.81
2023-04-03T19:30:47.209Z,8.82
2023-04-03T19:33:21.607Z,8.83
2023-04-03T19:35:50.951Z,8.82
2023-04-03T19:38:19.463Z,8.80
2023-04-03T19:40:48.578Z,8.79
2023-04-03T19:43:17.438Z,8.77
2023-04-03T19:45:46.633Z,8.75
2023-04-03T19:48:15.923Z,8.72
2023-04-03T19:50:45.620Z,8.69
2023-04-03T19:53:18.916Z,8.64
2023-04-03T19:55:47.453Z,8.57
2023-04-03T19:58:18.678Z,8.51
2023-04-03T20:00:46.931Z,8.46
2023-04-03T20:03:17.351Z,8.40
2023-04-03T20:05:46.938Z,8.36
2023-04-03T20:08:15.681Z,8.31
2023-04-03T20:10:50.556Z,8.27
2023-04-03T20:13:19.411Z,8.23
2023-04-03T20:15:48.011Z,8.18
2023-04-03T20:18:19.707Z,8.14
2023-04-03T20:21:00.063Z,8.10
2023-04-03T20:23:29.293Z,8.06
2023-04-03T20:26:09.559Z,8.03
2023-04-03T20:28:41.487Z,8.00
2023-04-03T20:31:12.217Z,7.98
2023-04-03T20:33:41.655Z,7.97
2023-04-03T20:36:10.060Z,7.97
2023-04-03T20:38:39.392Z,7.97
2023-04-03T20:41:08.486Z,7.99
2023-04-03T20:43:40.187Z,7.99
2023-04-03T20:46:11.248Z,8.00
2023-04-03T20:48:41.779Z,8.00
2023-04-03T20:51:12.607Z,8.01
2023-04-03T20:53:43.220Z,8.02
2023-04-03T20:56:12.118Z,8.02
2023-04-03T20:58:46.508Z,8.04
2023-04-03T21:01:21.393Z,8.06
2023-04-03T21:03:55.194Z,8.09
2023-04-03T21:07:02.766Z,8.11
2023-04-03T21:10:09.206Z,8.13
2023-04-03T21:13:17.470Z,8.17
2023-04-03T21:16:00.210Z,8.19
2023-04-03T21:18:55.252Z,8.22
2023-04-03T21:21:26.339Z,8.23
2023-04-03T21:23:55.667Z,8.23
2023-04-03T21:26:27.060Z,8.24
2023-04-03T21:28:56.084Z,8.25
2023-04-03T21:31:24.942Z,8.26
2023-04-03T21:33:54.936Z,8.26
2023-04-03T21:36:23.386Z,8.27
2023-04-03T21:38:51.840Z,8.27
2023-04-03T21:41:21.775Z,8.27
2023-04-03T21:43:50.469Z,8.26
2023-04-03T21:46:20.814Z,8.26
2023-04-03T21:48:49.286Z,8.25
2023-04-03T21:51:22.418Z,8.26
2023-04-03T21:53:54.284Z,8.26
2023-04-03T21:56:24.521Z,8.28
2023-04-03T21:58:53.348Z,8.28
2023-04-03T22:01:23.098Z,8.29
2023-04-03T22:03:52.668Z,8.29
2023-04-03T22:06:21.112Z,8.30
2023-04-03T22:08:50.919Z,8.29
2023-04-03T22:11:19.619Z,8.30
2023-04-03T22:13:52.517Z,8.30
2023-04-03T22:16:23.831Z,8.29
2023-04-03T22:18:53.116Z,8.29
2023-04-03T22:21:24.080Z,8.30
2023-04-03T22:23:54.850Z,8.31
2023-04-03T22:26:23.524Z,8.32
2023-04-03T22:28:52.418Z,8.31
2023-04-03T22:31:21.233Z,8.31
2023-04-03T22:33:49.707Z,8.32
2023-04-03T22:36:18.198Z,8.32
2023-04-03T22:38:47.552Z,8.33
2023-04-03T22:41:15.888Z,8.34
2023-04-03T22:43:44.595Z,8.36
2023-04-03T22:46:18.602Z,8.38
2023-04-03T22:48:48.305Z,8.39
2023-04-03T22:51:17.168Z,8.39
2023-04-03T22:53:45.901Z,8.41
2023-04-03T22:56:14.676Z,8.41
2023-04-03T22:58:43.499Z,8.42
2023-04-03T23:01:13.869Z,8.43
2023-04-03T23:03:43.654Z,8.45
2023-04-03T23:06:13.644Z,8.45
2023-04-03T23:08:44.032Z,8.46
2023-04-03T23:11:12.972Z,8.46
2023-04-03T23:13:41.387Z,8.45
2023-04-03T23:16:10.160Z,8.43
2023-04-03T23:18:40.110Z,8.42
2023-04-03T23:21:09.658Z,8.42
2023-04-03T23:23:38.320Z,8.41
2023-04-03T23:26:06.787Z,8.40
2023-04-03T23:28:37.035Z,8.39
2023-04-03T23:31:07.981Z,8.40
2023-04-03T23:33:44.058Z,8.40
2023-04-03T23:36:13.528Z,8.38
2023-04-03T23:38:43.221Z,8.37
2023-04-03T23:41:13.218Z,8.37
2023-04-03T23:43:42.489Z,8.37
2023-04-03T23:46:11.198Z,8.36
2023-04-03T23:48:40.095Z,8.36
2023-04-03T23:51:12.619Z,8.36
2023-04-03T23:53:42.532Z,8.35
2023-04-03T23:56:13.372Z,8.35
2023-04-03T23:58:43.233Z,8.35
